sensor_id;sensor_type;location;lat;lon;timestamp;pressure;altitude;pressure_sealevel;temperature;humidity
71109;BME280;59614;51.012;-1.648;2023-07-13T00:01:45;100661.41;;;15.48;97.29
71109;BME280;59614;51.012;-1.648;2023-07-13T00:04:19;100673.97;;;15.43;96.65
71109;BME280;59614;51.012;-1.648;2023-07-13T00:06:46;100669.59;;;15.42;96.25
71109;BME280;59614;51.012;-1.648;2023-07-13T00:09:16;100664.47;;;15.36;96.10
71109;BME280;59614;51.012;-1.648;2023-07-13T00:11:42;100666.16;;;15.38;96.46
71109;BME280;59614;51.012;-1.648;2023-07-13T00:14:09;100661.81;;;15.36;96.90
71109;BME280;59614;51.012;-1.648;2023-07-13T00:16:36;100664.16;;;15.45;96.76
71109;BME280;59614;51.012;-1.648;2023-07-13T00:19:02;100660.84;;;15.38;96.71
71109;BME280;59614;51.012;-1.648;2023-07-13T00:21:27;100669.78;;;15.36;96.61
71109;BME280;59614;51.012;-1.648;2023-07-13T00:23:53;100663.56;;;15.37;97.09
71109;BME280;59614;51.012;-1.648;2023-07-13T00:26:18;100665.97;;;15.44;96.88
71109;BME280;59614;51.012;-1.648;2023-07-13T00:28:44;100658.66;;;15.51;97.58
71109;BME280;59614;51.012;-1.648;2023-07-13T00:31:11;100655.19;;;15.49;96.87
71109;BME280;59614;51.012;-1.648;2023-07-13T00:33:37;100651.78;;;15.44;96.78
71109;BME280;59614;51.012;-1.648;2023-07-13T00:36:03;100653.22;;;15.54;97.24
71109;BME280;59614;51.012;-1.648;2023-07-13T00:38:29;100651.22;;;15.61;97.13
71109;BME280;59614;51.012;-1.648;2023-07-13T00:40:55;100650.38;;;15.60;97.23
71109;BME280;59614;51.012;-1.648;2023-07-13T00:43:22;100653.44;;;15.75;97.36
71109;BME280;59614;51.012;-1.648;2023-07-13T00:48:18;100643.31;;;15.86;97.22
71109;BME280;59614;51.012;-1.648;2023-07-13T00:50:48;100646.91;;;15.84;96.26
71109;BME280;59614;51.012;-1.648;2023-07-13T00:53:14;100639.56;;;15.92;97.08
71109;BME280;59614;51.012;-1.648;2023-07-13T00:55:40;100648.81;;;15.80;96.06
71109;BME280;59614;51.012;-1.648;2023-07-13T00:58:05;100647.56;;;15.92;96.95
71109;BME280;59614;51.012;-1.648;2023-07-13T01:00:34;100649.44;;;15.88;96.57
71109;BME280;59614;51.012;-1.648;2023-07-13T01:03:02;100645.16;;;15.83;96.64
71109;BME280;59614;51.012;-1.648;2023-07-13T01:05:30;100652.38;;;15.79;96.53
71109;BME280;59614;51.012;-1.648;2023-07-13T01:07:57;100648.81;;;15.80;96.43
71109;BME280;59614;51.012;-1.648;2023-07-13T01:10:23;100653.38;;;15.77;96.30
71109;BME280;59614;51.012;-1.648;2023-07-13T01:12:49;100655.38;;;15.70;96.03
71109;BME280;59614;51.012;-1.648;2023-07-13T01:18:10;100655.09;;;15.52;95.86
71109;BME280;59614;51.012;-1.648;2023-07-13T01:20:37;100651.13;;;15.37;95.57
71109;BME280;59614;51.012;-1.648;2023-07-13T01:23:08;100652.59;;;15.48;96.78
71109;BME280;59614;51.012;-1.648;2023-07-13T01:25:35;100649.44;;;15.35;96.10
71109;BME280;59614;51.012;-1.648;2023-07-13T01:28:02;100652.34;;;15.27;95.95
71109;BME280;59614;51.012;-1.648;2023-07-13T01:30:28;100654.44;;;15.17;96.67
71109;BME280;59614;51.012;-1.648;2023-07-13T01:32:54;100656.19;;;15.18;97.07
71109;BME280;59614;51.012;-1.648;2023-07-13T01:35:19;100643.84;;;15.16;97.11
71109;BME280;59614;51.012;-1.648;2023-07-13T01:37:45;100645.44;;;15.21;97.48
71109;BME280;59614;51.012;-1.648;2023-07-13T01:40:11;100644.88;;;15.11;97.28
71109;BME280;59614;51.012;-1.648;2023-07-13T01:42:37;100638.88;;;15.05;97.88
71109;BME280;59614;51.012;-1.648;2023-07-13T01:45:03;100636.50;;;14.95;97.80
71109;BME280;59614;51.012;-1.648;2023-07-13T01:47:29;100641.78;;;14.97;98.58
71109;BME280;59614;51.012;-1.648;2023-07-13T01:49:56;100643.38;;;15.03;97.98
71109;BME280;59614;51.012;-1.648;2023-07-13T01:52:22;100652.94;;;15.08;98.14
71109;BME280;59614;51.012;-1.648;2023-07-13T01:54:47;100650.06;;;15.14;97.83
71109;BME280;59614;51.012;-1.648;2023-07-13T01:57:13;100651.03;;;15.12;98.11
71109;BME280;59614;51.012;-1.648;2023-07-13T01:59:38;100651.56;;;14.96;97.81
71109;BME280;59614;51.012;-1.648;2023-07-13T02:02:04;100651.88;;;15.14;98.74
71109;BME280;59614;51.012;-1.648;2023-07-13T02:04:29;100649.44;;;15.08;97.63
71109;BME280;59614;51.012;-1.648;2023-07-13T02:06:54;100650.28;;;15.08;97.51
71109;BME280;59614;51.012;-1.648;2023-07-13T02:09:20;100646.78;;;15.08;97.71
71109;BME280;59614;51.012;-1.648;2023-07-13T02:11:46;100645.72;;;15.12;97.40
71109;BME280;59614;51.012;-1.648;2023-07-13T02:14:11;100646.66;;;15.11;97.25
71109;BME280;59614;51.012;-1.648;2023-07-13T02:16:37;100640.25;;;15.17;97.83
71109;BME280;59614;51.012;-1.648;2023-07-13T02:19:02;100647.47;;;15.13;97.50
71109;BME280;59614;51.012;-1.648;2023-07-13T02:21:28;100633.66;;;15.02;96.20
71109;BME280;59614;51.012;-1.648;2023-07-13T02:23:54;100640.66;;;15.04;96.43
71109;BME280;59614;51.012;-1.648;2023-07-13T02:26:20;100636.22;;;15.05;97.11
71109;BME280;59614;51.012;-1.648;2023-07-13T02:28:45;100632.78;;;15.01;96.47
71109;BME280;59614;51.012;-1.648;2023-07-13T02:31:13;100638.97;;;15.02;96.19
71109;BME280;59614;51.012;-1.648;2023-07-13T02:33:39;100642.06;;;14.88;96.54
71109;BME280;59614;51.012;-1.648;2023-07-13T02:36:06;100638.53;;;14.87;96.94
71109;BME280;59614;51.012;-1.648;2023-07-13T02:38:32;100632.28;;;14.88;97.22
71109;BME280;59614;51.012;-1.648;2023-07-13T02:40:59;100636.66;;;14.91;96.50
71109;BME280;59614;51.012;-1.648;2023-07-13T02:43:25;100630.38;;;14.93;96.79
71109;BME280;59614;51.012;-1.648;2023-07-13T02:45:51;100628.72;;;14.89;96.57
71109;BME280;59614;51.012;-1.648;2023-07-13T02:48:16;100629.84;;;14.82;96.41
71109;BME280;59614;51.012;-1.648;2023-07-13T02:50:44;100635.38;;;14.74;96.22
71109;BME280;59614;51.012;-1.648;2023-07-13T02:53:10;100640.63;;;14.76;96.27
71109;BME280;59614;51.012;-1.648;2023-07-13T02:55:35;100642.38;;;14.77;96.26
71109;BME280;59614;51.012;-1.648;2023-07-13T02:58:01;100638.94;;;14.73;96.21
71109;BME280;59614;51.012;-1.648;2023-07-13T03:00:26;100646.91;;;14.73;96.62
71109;BME280;59614;51.012;-1.648;2023-07-13T03:02:53;100644.19;;;14.76;96.75
71109;BME280;59614;51.012;-1.648;2023-07-13T03:05:18;100643.03;;;14.85;97.03
71109;BME280;59614;51.012;-1.648;2023-07-13T03:07:44;100639.84;;;14.74;95.92
71109;BME280;59614;51.012;-1.648;2023-07-13T03:10:09;100638.94;;;14.73;96.44
71109;BME280;59614;51.012;-1.648;2023-07-13T03:12:35;100649.66;;;14.70;96.48
71109;BME280;59614;51.012;-1.648;2023-07-13T03:15:01;100646.69;;;14.81;97.28
71109;BME280;59614;51.012;-1.648;2023-07-13T03:17:26;100635.22;;;14.80;97.08
71109;BME280;59614;51.012;-1.648;2023-07-13T03:19:52;100645.00;;;14.78;96.30
71109;BME280;59614;51.012;-1.648;2023-07-13T03:22:18;100643.28;;;14.76;96.08
71109;BME280;59614;51.012;-1.648;2023-07-13T03:24:44;100645.16;;;14.74;95.88
71109;BME280;59614;51.012;-1.648;2023-07-13T03:27:09;100653.16;;;14.72;96.26
71109;BME280;59614;51.012;-1.648;2023-07-13T03:29:34;100658.47;;;14.72;96.06
71109;BME280;59614;51.012;-1.648;2023-07-13T03:32:00;100654.81;;;14.76;96.39
71109;BME280;59614;51.012;-1.648;2023-07-13T03:34:26;100653.84;;;14.79;96.53
71109;BME280;59614;51.012;-1.648;2023-07-13T03:36:54;100658.31;;;14.77;96.35
71109;BME280;59614;51.012;-1.648;2023-07-13T03:39:20;100648.81;;;14.70;95.54
71109;BME280;59614;51.012;-1.648;2023-07-13T03:41:45;100643.66;;;14.63;95.59
71109;BME280;59614;51.012;-1.648;2023-07-13T03:44:11;100651.66;;;14.62;95.71
71109;BME280;59614;51.012;-1.648;2023-07-13T03:46:37;100649.91;;;14.61;95.82
71109;BME280;59614;51.012;-1.648;2023-07-13T03:49:04;100644.72;;;14.56;95.73
71109;BME280;59614;51.012;-1.648;2023-07-13T03:51:30;100650.09;;;14.55;95.37
71109;BME280;59614;51.012;-1.648;2023-07-13T03:53:56;100642.16;;;14.53;95.71
71109;BME280;59614;51.012;-1.648;2023-07-13T03:56:21;100639.63;;;14.50;95.57
71109;BME280;59614;51.012;-1.648;2023-07-13T03:58:49;100650.31;;;14.47;95.21
71109;BME280;59614;51.012;-1.648;2023-07-13T04:01:16;100648.78;;;14.38;95.28
71109;BME280;59614;51.012;-1.648;2023-07-13T04:03:41;100650.53;;;14.39;95.86
71109;BME280;59614;51.012;-1.648;2023-07-13T04:06:13;100650.66;;;14.34;95.89
71109;BME280;59614;51.012;-1.648;2023-07-13T04:08:40;100654.16;;;14.36;96.00
71109;BME280;59614;51.012;-1.648;2023-07-13T04:11:06;100652.56;;;14.31;96.13
71109;BME280;59614;51.012;-1.648;2023-07-13T04:13:32;100655.97;;;14.34;95.66
71109;BME280;59614;51.012;-1.648;2023-07-13T04:15:58;100649.84;;;14.32;95.91
71109;BME280;59614;51.012;-1.648;2023-07-13T04:18:23;100659.69;;;14.29;95.29
71109;BME280;59614;51.012;-1.648;2023-07-13T04:20:50;100660.97;;;14.14;95.12
71109;BME280;59614;51.012;-1.648;2023-07-13T04:23:16;100664.47;;;14.16;96.18
71109;BME280;59614;51.012;-1.648;2023-07-13T04:25:46;100665.97;;;14.26;96.26
71109;BME280;59614;51.012;-1.648;2023-07-13T04:28:18;100660.38;;;14.35;96.00
71109;BME280;59614;51.012;-1.648;2023-07-13T04:30:43;100662.19;;;14.33;95.27
71109;BME280;59614;51.012;-1.648;2023-07-13T04:33:09;100664.84;;;14.33;95.46
71109;BME280;59614;51.012;-1.648;2023-07-13T04:35:35;100662.19;;;14.33;95.30
71109;BME280;59614;51.012;-1.648;2023-07-13T04:38:01;100669.09;;;14.41;95.07
71109;BME280;59614;51.012;-1.648;2023-07-13T04:40:28;100670.81;;;14.42;94.38
71109;BME280;59614;51.012;-1.648;2023-07-13T04:42:53;100664.44;;;14.49;95.17
71109;BME280;59614;51.012;-1.648;2023-07-13T04:45:19;100674.97;;;14.52;94.79
71109;BME280;59614;51.012;-1.648;2023-07-13T04:47:45;100673.94;;;14.58;94.90
71109;BME280;59614;51.012;-1.648;2023-07-13T04:50:13;100686.44;;;14.52;94.62
71109;BME280;59614;51.012;-1.648;2023-07-13T04:52:41;100678.28;;;14.59;95.08
71109;BME280;59614;51.012;-1.648;2023-07-13T04:55:07;100676.88;;;14.47;95.74
71109;BME280;59614;51.012;-1.648;2023-07-13T04:57:33;100686.50;;;14.51;95.47
71109;BME280;59614;51.012;-1.648;2023-07-13T04:59:58;100680.38;;;14.49;94.73
71109;BME280;59614;51.012;-1.648;2023-07-13T05:02:26;100686.31;;;14.57;94.69
71109;BME280;59614;51.012;-1.648;2023-07-13T05:04:53;100690.47;;;14.67;94.95
71109;BME280;59614;51.012;-1.648;2023-07-13T05:07:19;100688.56;;;14.73;94.53
71109;BME280;59614;51.012;-1.648;2023-07-13T05:09:44;100689.13;;;14.84;94.92
71109;BME280;59614;51.012;-1.648;2023-07-13T05:12:09;100688.22;;;14.85;95.18
71109;BME280;59614;51.012;-1.648;2023-07-13T05:14:35;100688.06;;;14.90;95.00
71109;BME280;59614;51.012;-1.648;2023-07-13T05:17:00;100689.47;;;15.02;95.02
71109;BME280;59614;51.012;-1.648;2023-07-13T05:19:26;100690.09;;;15.10;95.92
71109;BME280;59614;51.012;-1.648;2023-07-13T05:21:51;100690.06;;;15.11;94.63
71109;BME280;59614;51.012;-1.648;2023-07-13T05:24:17;100688.94;;;15.19;94.93
71109;BME280;59614;51.012;-1.648;2023-07-13T05:26:43;100698.72;;;15.18;95.10
71109;BME280;59614;51.012;-1.648;2023-07-13T05:29:09;100699.97;;;15.35;95.45
71109;BME280;59614;51.012;-1.648;2023-07-13T05:31:34;100692.72;;;15.40;92.86
71109;BME280;59614;51.012;-1.648;2023-07-13T05:33:59;100696.97;;;15.46;92.69
71109;BME280;59614;51.012;-1.648;2023-07-13T05:36:25;100701.00;;;15.57;93.02
71109;BME280;59614;51.012;-1.648;2023-07-13T05:38:50;100688.22;;;15.69;93.17
71109;BME280;59614;51.012;-1.648;2023-07-13T05:41:15;100698.91;;;15.94;94.35
71109;BME280;59614;51.012;-1.648;2023-07-13T05:43:41;100689.59;;;16.08;94.33
71109;BME280;59614;51.012;-1.648;2023-07-13T05:46:06;100693.63;;;16.19;94.69
71109;BME280;59614;51.012;-1.648;2023-07-13T05:48:32;100695.06;;;16.28;94.82
71109;BME280;59614;51.012;-1.648;2023-07-13T05:50:57;100697.09;;;16.21;94.35
71109;BME280;59614;51.012;-1.648;2023-07-13T05:53:23;100701.56;;;15.96;93.89
71109;BME280;59614;51.012;-1.648;2023-07-13T05:55:49;100705.41;;;16.12;95.21
71109;BME280;59614;51.012;-1.648;2023-07-13T05:58:18;100708.19;;;16.09;95.09
71109;BME280;59614;51.012;-1.648;2023-07-13T06:00:44;100715.22;;;16.10;95.48
71109;BME280;59614;51.012;-1.648;2023-07-13T06:03:09;100708.78;;;16.17;95.33
71109;BME280;59614;51.012;-1.648;2023-07-13T06:05:36;100712.94;;;16.26;96.17
71109;BME280;59614;51.012;-1.648;2023-07-13T06:08:03;100706.53;;;16.30;95.92
71109;BME280;59614;51.012;-1.648;2023-07-13T06:10:29;100711.28;;;16.47;96.56
71109;BME280;59614;51.012;-1.648;2023-07-13T06:12:57;100717.31;;;16.52;96.12
71109;BME280;59614;51.012;-1.648;2023-07-13T06:15:22;100722.63;;;16.52;95.41
71109;BME280;59614;51.012;-1.648;2023-07-13T06:17:48;100727.16;;;16.74;96.67
71109;BME280;59614;51.012;-1.648;2023-07-13T06:20:13;100729.56;;;16.82;96.07
71109;BME280;59614;51.012;-1.648;2023-07-13T06:22:38;100738.69;;;16.75;95.68
71109;BME280;59614;51.012;-1.648;2023-07-13T06:25:04;100733.56;;;16.94;96.28
71109;BME280;59614;51.012;-1.648;2023-07-13T06:27:30;100735.31;;;16.95;95.08
71109;BME280;59614;51.012;-1.648;2023-07-13T06:29:55;100744.94;;;16.99;95.56
71109;BME280;59614;51.012;-1.648;2023-07-13T06:32:21;100744.72;;;16.80;95.26
71109;BME280;59614;51.012;-1.648;2023-07-13T06:34:46;100747.72;;;16.96;94.80
71109;BME280;59614;51.012;-1.648;2023-07-13T06:37:12;100745.34;;;17.34;94.68
71109;BME280;59614;51.012;-1.648;2023-07-13T06:39:37;100752.31;;;17.38;94.83
71109;BME280;59614;51.012;-1.648;2023-07-13T06:42:03;100749.38;;;17.22;94.01
71109;BME280;59614;51.012;-1.648;2023-07-13T06:44:29;100749.91;;;17.32;94.90
71109;BME280;59614;51.012;-1.648;2023-07-13T06:46:55;100762.16;;;17.36;93.66
71109;BME280;59614;51.012;-1.648;2023-07-13T06:49:20;100761.56;;;17.52;94.67
71109;BME280;59614;51.012;-1.648;2023-07-13T06:51:45;100769.28;;;17.59;93.93
71109;BME280;59614;51.012;-1.648;2023-07-13T06:54:11;100766.16;;;17.70;93.20
71109;BME280;59614;51.012;-1.648;2023-07-13T06:56:36;100771.00;;;17.83;92.84
71109;BME280;59614;51.012;-1.648;2023-07-13T06:59:02;100767.16;;;17.90;92.02
71109;BME280;59614;51.012;-1.648;2023-07-13T07:01:27;100765.78;;;17.80;92.29
71109;BME280;59614;51.012;-1.648;2023-07-13T07:03:53;100778.19;;;17.81;93.44
71109;BME280;59614;51.012;-1.648;2023-07-13T07:06:22;100776.22;;;17.41;93.26
71109;BME280;59614;51.012;-1.648;2023-07-13T07:08:51;100779.88;;;17.61;94.52
71109;BME280;59614;51.012;-1.648;2023-07-13T07:11:20;100783.06;;;17.71;93.67
71109;BME280;59614;51.012;-1.648;2023-07-13T07:13:47;100784.53;;;17.56;94.46
71109;BME280;59614;51.012;-1.648;2023-07-13T07:16:13;100786.47;;;17.74;94.50
71109;BME280;59614;51.012;-1.648;2023-07-13T07:18:38;100792.09;;;17.67;94.60
71109;BME280;59614;51.012;-1.648;2023-07-13T07:21:04;100791.00;;;17.72;94.32
71109;BME280;59614;51.012;-1.648;2023-07-13T07:23:30;100794.34;;;17.78;93.89
71109;BME280;59614;51.012;-1.648;2023-07-13T07:25:55;100793.47;;;17.55;91.59
71109;BME280;59614;51.012;-1.648;2023-07-13T07:28:21;100795.13;;;17.80;94.14
71109;BME280;59614;51.012;-1.648;2023-07-13T07:30:48;100802.19;;;17.82;93.05
71109;BME280;59614;51.012;-1.648;2023-07-13T07:33:14;100804.28;;;17.96;92.46
71109;BME280;59614;51.012;-1.648;2023-07-13T07:35:40;100804.47;;;17.91;93.64
71109;BME280;59614;51.012;-1.648;2023-07-13T07:38:05;100803.66;;;17.67;92.20
71109;BME280;59614;51.012;-1.648;2023-07-13T07:40:31;100811.84;;;18.29;93.65
71109;BME280;59614;51.012;-1.648;2023-07-13T07:42:56;100800.75;;;18.39;90.93
71109;BME280;59614;51.012;-1.648;2023-07-13T07:45:22;100805.47;;;18.52;91.00
71109;BME280;59614;51.012;-1.648;2023-07-13T07:47:47;100800.47;;;18.65;90.31
71109;BME280;59614;51.012;-1.648;2023-07-13T07:50:13;100806.81;;;18.83;91.12
71109;BME280;59614;51.012;-1.648;2023-07-13T07:52:39;100800.06;;;18.95;90.91
71109;BME280;59614;51.012;-1.648;2023-07-13T07:55:06;100804.94;;;19.44;88.69
71109;BME280;59614;51.012;-1.648;2023-07-13T07:57:32;100801.31;;;19.26;85.48
71109;BME280;59614;51.012;-1.648;2023-07-13T07:59:57;100803.41;;;19.39;88.21
71109;BME280;59614;51.012;-1.648;2023-07-13T08:02:24;100802.56;;;19.38;87.72
71109;BME280;59614;51.012;-1.648;2023-07-13T08:04:49;100802.97;;;19.48;89.19
71109;BME280;59614;51.012;-1.648;2023-07-13T08:07:15;100797.66;;;18.89;87.80
71109;BME280;59614;51.012;-1.648;2023-07-13T08:09:40;100802.97;;;19.10;89.93
71109;BME280;59614;51.012;-1.648;2023-07-13T08:12:06;100799.41;;;18.90;86.90
71109;BME280;59614;51.012;-1.648;2023-07-13T08:14:32;100797.19;;;19.19;89.32
71109;BME280;59614;51.012;-1.648;2023-07-13T08:16:58;100798.44;;;19.12;87.63
71109;BME280;59614;51.012;-1.648;2023-07-13T08:19:23;100793.41;;;19.62;89.55
71109;BME280;59614;51.012;-1.648;2023-07-13T08:21:49;100796.19;;;19.41;84.43
71109;BME280;59614;51.012;-1.648;2023-07-13T08:24:14;100787.78;;;19.49;85.98
71109;BME280;59614;51.012;-1.648;2023-07-13T08:26:40;100790.84;;;19.97;87.38
71109;BME280;59614;51.012;-1.648;2023-07-13T08:29:06;100788.03;;;20.35;87.28
71109;BME280;59614;51.012;-1.648;2023-07-13T08:31:31;100783.06;;;20.96;86.40
71109;BME280;59614;51.012;-1.648;2023-07-13T08:33:57;100779.94;;;20.88;82.16
71109;BME280;59614;51.012;-1.648;2023-07-13T08:36:22;100785.09;;;20.75;83.92
71109;BME280;59614;51.012;-1.648;2023-07-13T08:38:48;100786.28;;;20.16;81.39
71109;BME280;59614;51.012;-1.648;2023-07-13T08:41:17;100780.09;;;19.79;82.47
71109;BME280;59614;51.012;-1.648;2023-07-13T08:43:47;100789.28;;;19.93;84.00
71109;BME280;59614;51.012;-1.648;2023-07-13T08:48:49;100783.13;;;19.90;83.28
71109;BME280;59614;51.012;-1.648;2023-07-13T08:51:39;100787.56;;;20.09;84.96
71109;BME280;59614;51.012;-1.648;2023-07-13T08:54:21;100782.94;;;20.64;83.84
71109;BME280;59614;51.012;-1.648;2023-07-13T08:56:49;100782.19;;;20.79;81.17
71109;BME280;59614;51.012;-1.648;2023-07-13T08:59:20;100785.88;;;20.59;80.10
71109;BME280;59614;51.012;-1.648;2023-07-13T09:04:46;100793.19;;;20.91;81.84
71109;BME280;59614;51.012;-1.648;2023-07-13T09:07:14;100796.38;;;20.81;80.69
71109;BME280;59614;51.012;-1.648;2023-07-13T09:14:51;100793.53;;;19.97;79.84
71109;BME280;59614;51.012;-1.648;2023-07-13T09:17:22;100788.31;;;19.94;80.36
71109;BME280;59614;51.012;-1.648;2023-07-13T09:20:10;100785.91;;;20.42;84.97
71109;BME280;59614;51.012;-1.648;2023-07-13T09:22:41;100784.13;;;20.58;83.53
71109;BME280;59614;51.012;-1.648;2023-07-13T09:27:39;100786.75;;;20.60;82.14
71109;BME280;59614;51.012;-1.648;2023-07-13T09:32:40;100795.00;;;20.90;80.52
71109;BME280;59614;51.012;-1.648;2023-07-13T09:35:12;100794.66;;;20.80;76.19
71109;BME280;59614;51.012;-1.648;2023-07-13T09:37:43;100783.41;;;20.90;78.75
71109;BME280;59614;51.012;-1.648;2023-07-13T09:40:28;100786.41;;;21.33;73.91
71109;BME280;59614;51.012;-1.648;2023-07-13T09:42:57;100794.03;;;21.57;75.22
71109;BME280;59614;51.012;-1.648;2023-07-13T09:45:28;100785.50;;;21.01;71.60
71109;BME280;59614;51.012;-1.648;2023-07-13T09:48:10;100784.25;;;21.56;74.83
71109;BME280;59614;51.012;-1.648;2023-07-13T09:50:36;100789.06;;;21.01;70.90
71109;BME280;59614;51.012;-1.648;2023-07-13T09:53:02;100788.16;;;21.66;71.97
71109;BME280;59614;51.012;-1.648;2023-07-13T09:55:37;100793.03;;;22.06;69.86
71109;BME280;59614;51.012;-1.648;2023-07-13T09:58:06;100797.97;;;22.14;73.32
71109;BME280;59614;51.012;-1.648;2023-07-13T10:00:35;100797.16;;;22.28;72.72
71109;BME280;59614;51.012;-1.648;2023-07-13T10:03:20;100801.63;;;22.13;71.31
71109;BME280;59614;51.012;-1.648;2023-07-13T10:05:48;100804.16;;;22.61;73.13
71109;BME280;59614;51.012;-1.648;2023-07-13T10:10:44;100805.44;;;22.98;73.25
71109;BME280;59614;51.012;-1.648;2023-07-13T10:13:51;100796.56;;;22.23;69.21
71109;BME280;59614;51.012;-1.648;2023-07-13T10:16:16;100799.38;;;22.66;72.01
71109;BME280;59614;51.012;-1.648;2023-07-13T10:18:46;100805.69;;;22.50;70.74
71109;BME280;59614;51.012;-1.648;2023-07-13T10:21:17;100792.91;;;22.54;68.23
71109;BME280;59614;51.012;-1.648;2023-07-13T10:23:46;100797.56;;;22.95;65.79
71109;BME280;59614;51.012;-1.648;2023-07-13T10:26:18;100792.88;;;23.55;69.35
71109;BME280;59614;51.012;-1.648;2023-07-13T10:28:47;100796.78;;;23.37;69.44
71109;BME280;59614;51.012;-1.648;2023-07-13T10:31:15;100793.00;;;23.81;64.56
71109;BME280;59614;51.012;-1.648;2023-07-13T10:33:42;100795.13;;;23.76;65.06
71109;BME280;59614;51.012;-1.648;2023-07-13T10:36:33;100799.22;;;23.69;70.22
71109;BME280;59614;51.012;-1.648;2023-07-13T10:39:02;100799.94;;;23.85;65.66
71109;BME280;59614;51.012;-1.648;2023-07-13T10:41:30;100791.47;;;24.58;63.62
71109;BME280;59614;51.012;-1.648;2023-07-13T10:43:58;100794.94;;;24.98;61.82
71109;BME280;59614;51.012;-1.648;2023-07-13T10:46:26;100794.69;;;24.50;64.81
71109;BME280;59614;51.012;-1.648;2023-07-13T10:48:58;100799.00;;;23.72;68.07
71109;BME280;59614;51.012;-1.648;2023-07-13T10:51:26;100798.13;;;22.72;64.43
71109;BME280;59614;51.012;-1.648;2023-07-13T10:54:19;100808.97;;;22.25;67.13
71109;BME280;59614;51.012;-1.648;2023-07-13T10:59:33;100801.28;;;21.72;68.01
71109;BME280;59614;51.012;-1.648;2023-07-13T11:04:29;100797.31;;;21.30;66.17
71109;BME280;59614;51.012;-1.648;2023-07-13T11:07:11;100805.88;;;22.31;67.17
71109;BME280;59614;51.012;-1.648;2023-07-13T11:09:43;100802.97;;;22.20;65.39
71109;BME280;59614;51.012;-1.648;2023-07-13T11:15:01;100804.09;;;21.85;70.95
71109;BME280;59614;51.012;-1.648;2023-07-13T11:20:22;100808.19;;;19.89;73.28
71109;BME280;59614;51.012;-1.648;2023-07-13T11:23:06;100823.19;;;19.55;76.38
71109;BME280;59614;51.012;-1.648;2023-07-13T11:25:34;100825.72;;;19.58;81.50
71109;BME280;59614;51.012;-1.648;2023-07-13T11:30:43;100837.03;;;19.25;86.06
71109;BME280;59614;51.012;-1.648;2023-07-13T11:33:44;100841.28;;;18.90;87.06
71109;BME280;59614;51.012;-1.648;2023-07-13T11:36:21;100839.63;;;18.87;84.55
71109;BME280;59614;51.012;-1.648;2023-07-13T11:39:25;100819.66;;;19.36;85.88
71109;BME280;59614;51.012;-1.648;2023-07-13T11:41:58;100822.94;;;19.79;84.36
71109;BME280;59614;51.012;-1.648;2023-07-13T11:44:26;100821.16;;;20.34;83.90
71109;BME280;59614;51.012;-1.648;2023-07-13T11:46:57;100813.25;;;20.66;82.51
71109;BME280;59614;51.012;-1.648;2023-07-13T11:49:26;100818.53;;;20.85;81.74
71109;BME280;59614;51.012;-1.648;2023-07-13T11:51:52;100814.78;;;21.05;81.13
71109;BME280;59614;51.012;-1.648;2023-07-13T11:54:28;100805.94;;;21.03;79.80
71109;BME280;59614;51.012;-1.648;2023-07-13T11:56:57;100801.31;;;21.55;79.04
71109;BME280;59614;51.012;-1.648;2023-07-13T11:59:25;100802.00;;;21.58;78.35
71109;BME280;59614;51.012;-1.648;2023-07-13T12:01:52;100807.56;;;21.87;77.17
71109;BME280;59614;51.012;-1.648;2023-07-13T12:04:25;100799.06;;;21.31;75.47
71109;BME280;59614;51.012;-1.648;2023-07-13T12:06:56;100811.56;;;20.98;77.96
71109;BME280;59614;51.012;-1.648;2023-07-13T12:09:26;100810.03;;;20.77;79.11
71109;BME280;59614;51.012;-1.648;2023-07-13T12:11:52;100802.75;;;20.44;76.58
71109;BME280;59614;51.012;-1.648;2023-07-13T12:14:18;100810.06;;;21.42;80.56
71109;BME280;59614;51.012;-1.648;2023-07-13T12:16:46;100798.25;;;22.40;73.89
71109;BME280;59614;51.012;-1.648;2023-07-13T12:19:23;100799.81;;;22.44;76.52
71109;BME280;59614;51.012;-1.648;2023-07-13T12:21:52;100792.59;;;22.14;72.87
71109;BME280;59614;51.012;-1.648;2023-07-13T12:24:18;100792.44;;;22.31;76.26
71109;BME280;59614;51.012;-1.648;2023-07-13T12:26:48;100779.66;;;21.42;71.49
71109;BME280;59614;51.012;-1.648;2023-07-13T12:29:16;100783.47;;;21.86;76.83
71109;BME280;59614;51.012;-1.648;2023-07-13T12:31:47;100777.75;;;21.92;72.44
71109;BME280;59614;51.012;-1.648;2023-07-13T12:34:19;100764.13;;;22.71;70.27
71109;BME280;59614;51.012;-1.648;2023-07-13T12:36:59;100767.34;;;22.47;67.08
71109;BME280;59614;51.012;-1.648;2023-07-13T12:39:34;100764.22;;;22.24;71.16
71109;BME280;59614;51.012;-1.648;2023-07-13T12:42:26;100760.09;;;22.33;70.78
71109;BME280;59614;51.012;-1.648;2023-07-13T12:44:59;100762.88;;;21.70;67.23
71109;BME280;59614;51.012;-1.648;2023-07-13T12:47:26;100760.16;;;22.17;70.00
71109;BME280;59614;51.012;-1.648;2023-07-13T12:49:55;100762.94;;;22.89;69.96
71109;BME280;59614;51.012;-1.648;2023-07-13T12:52:30;100768.41;;;23.73;65.60
71109;BME280;59614;51.012;-1.648;2023-07-13T12:55:06;100752.47;;;23.28;66.45
71109;BME280;59614;51.012;-1.648;2023-07-13T12:57:39;100767.19;;;22.50;67.88
71109;BME280;59614;51.012;-1.648;2023-07-13T13:00:21;100778.97;;;21.86;68.98
71109;BME280;59614;51.012;-1.648;2023-07-13T13:02:50;100774.91;;;22.10;68.17
71109;BME280;59614;51.012;-1.648;2023-07-13T13:05:17;100783.94;;;22.09;66.27
71109;BME280;59614;51.012;-1.648;2023-07-13T13:07:43;100765.31;;;21.59;65.36
71109;BME280;59614;51.012;-1.648;2023-07-13T13:10:13;100774.28;;;21.42;69.61
71109;BME280;59614;51.012;-1.648;2023-07-13T13:12:39;100784.81;;;20.97;70.69
71109;BME280;59614;51.012;-1.648;2023-07-13T13:15:08;100796.31;;;20.65;71.88
71109;BME280;59614;51.012;-1.648;2023-07-13T13:17:34;100785.34;;;20.17;72.79
71109;BME280;59614;51.012;-1.648;2023-07-13T13:19:59;100795.41;;;19.95;75.36
71109;BME280;59614;51.012;-1.648;2023-07-13T13:22:25;100798.16;;;19.37;76.10